sensor_id;sensor_type;location;lat;lon;timestamp;temperature;humidity
17442;DHT22;8838;50.144;8.176;2023-04-06T00:01:06;1.10;99.90
17442;DHT22;8838;50.144;8.176;2023-04-06T00:03:33;1.00;99.90
17442;DHT22;8838;50.144;8.176;2023-04-06T00:06:00;0.90;99.90
17442;DHT22;8838;50.144;8.176;2023-04-06T00:08:27;0.90;99.90
17442;DHT22;8838;50.144;8.176;2023-04-06T00:10:55;0.80;99.90
17442;DHT22;8838;50.144;8.176;2023-04-06T00:13:22;0.70;99.90
17442;DHT22;8838;50.144;8.176;2023-04-06T00:15:49;0.80;99.90
17442;DHT22;8838;50.144;8.176;2023-04-06T00:18:16;0.80;99.90
17442;DHT22;8838;50.144;8.176;2023-04-06T00:20:43;0.80;99.90
17442;DHT22;8838;50.144;8.176;2023-04-06T00:23:11;0.90;99.90
17442;DHT22;8838;50.144;8.176;2023-04-06T00:25:37;0.80;99.90
17442;DHT22;8838;50.144;8.176;2023-04-06T00:28:06;0.90;99.90
17442;DHT22;8838;50.144;8.176;2023-04-06T00:30:33;0.80;99.90
17442;DHT22;8838;50.144;8.176;2023-04-06T00:33:00;0.70;99.90
17442;DHT22;8838;50.144;8.176;2023-04-06T00:35:27;0.60;99.90
17442;DHT22;8838;50.144;8.176;2023-04-06T00:37:54;0.50;99.90
17442;DHT22;8838;50.144;8.176;2023-04-06T00:40:21;0.50;99.90
17442;DHT22;8838;50.144;8.176;2023-04-06T00:42:48;0.50;99.90
17442;DHT22;8838;50.144;8.176;2023-04-06T00:45:16;0.60;99.90
17442;DHT22;8838;50.144;8.176;2023-04-06T00:47:43;0.50;99.90
17442;DHT22;8838;50.144;8.176;2023-04-06T00:50:10;0.50;99.90
17442;DHT22;8838;50.144;8.176;2023-04-06T00:52:37;0.50;99.90
17442;DHT22;8838;50.144;8.176;2023-04-06T00:55:05;0.50;99.90
17442;DHT22;8838;50.144;8.176;2023-04-06T00:57:33;0.40;99.90
17442;DHT22;8838;50.144;8.176;2023-04-06T01:00:00;0.40;99.90
17442;DHT22;8838;50.144;8.176;2023-04-06T01:02:29;0.40;99.90
17442;DHT22;8838;50.144;8.176;2023-04-06T01:04:56;0.40;99.90
17442;DHT22;8838;50.144;8.176;2023-04-06T01:07:23;0.50;99.90
17442;DHT22;8838;50.144;8.176;2023-04-06T01:09:52;0.50;99.90
17442;DHT22;8838;50.144;8.176;2023-04-06T01:12:19;0.40;99.90
17442;DHT22;8838;50.144;8.176;2023-04-06T01:14:46;0.40;99.90
17442;DHT22;8838;50.144;8.176;2023-04-06T01:17:13;0.40;99.90
17442;DHT22;8838;50.144;8.176;2023-04-06T01:19:42;0.30;99.90
17442;DHT22;8838;50.144;8.176;2023-04-06T01:22:15;0.40;99.90
17442;DHT22;8838;50.144;8.176;2023-04-06T01:24:42;0.40;99.90
17442;DHT22;8838;50.144;8.176;2023-04-06T01:27:09;0.40;99.90
17442;DHT22;8838;50.144;8.176;2023-04-06T01:29:37;0.40;99.90
17442;DHT22;8838;50.144;8.176;2023-04-06T01:32:07;0.40;99.90
17442;DHT22;8838;50.144;8.176;2023-04-06T01:34:34;0.30;99.90
17442;DHT22;8838;50.144;8.176;2023-04-06T01:37:01;0.30;99.90
17442;DHT22;8838;50.144;8.176;2023-04-06T01:39:30;0.30;99.90
17442;DHT22;8838;50.144;8.176;2023-04-06T01:41:57;0.30;99.90
17442;DHT22;8838;50.144;8.176;2023-04-06T01:44:24;0.30;99.90
17442;DHT22;8838;50.144;8.176;2023-04-06T01:46:51;0.30;99.90
17442;DHT22;8838;50.144;8.176;2023-04-06T01:49:18;0.30;99.90
17442;DHT22;8838;50.144;8.176;2023-04-06T01:51:45;0.20;99.90
17442;DHT22;8838;50.144;8.176;2023-04-06T01:54:12;0.20;99.90
17442;DHT22;8838;50.144;8.176;2023-04-06T01:56:40;0.20;99.90
17442;DHT22;8838;50.144;8.176;2023-04-06T01:59:07;0.10;99.90
17442;DHT22;8838;50.144;8.176;2023-04-06T02:01:34;0.10;99.90
17442;DHT22;8838;50.144;8.176;2023-04-06T02:04:04;-0.10;99.90
17442;DHT22;8838;50.144;8.176;2023-04-06T02:06:31;-0.20;99.90
17442;DHT22;8838;50.144;8.176;2023-04-06T02:08:58;-0.20;99.90
17442;DHT22;8838;50.144;8.176;2023-04-06T02:11:25;-0.10;99.90
17442;DHT22;8838;50.144;8.176;2023-04-06T02:13:54;-0.10;99.90
17442;DHT22;8838;50.144;8.176;2023-04-06T02:16:21;-0.10;99.90
17442;DHT22;8838;50.144;8.176;2023-04-06T02:18:48;0.00;99.90
17442;DHT22;8838;50.144;8.176;2023-04-06T02:21:16;0.00;99.90
17442;DHT22;8838;50.144;8.176;2023-04-06T02:23:45;0.00;99.90
17442;DHT22;8838;50.144;8.176;2023-04-06T02:26:12;0.00;99.90
17442;DHT22;8838;50.144;8.176;2023-04-06T02:28:39;0.00;99.90
17442;DHT22;8838;50.144;8.176;2023-04-06T02:31:08;0.00;99.90
17442;DHT22;8838;50.144;8.176;2023-04-06T02:33:35;0.00;99.90
17442;DHT22;8838;50.144;8.176;2023-04-06T02:36:03;0.10;99.90
17442;DHT22;8838;50.144;8.176;2023-04-06T02:38:30;0.00;99.90
17442;DHT22;8838;50.144;8.176;2023-04-06T02:40:57;0.00;99.90
17442;DHT22;8838;50.144;8.176;2023-04-06T02:43:24;-0.10;99.90
17442;DHT22;8838;50.144;8.176;2023-04-06T02:45:51;-0.10;99.90
17442;DHT22;8838;50.144;8.176;2023-04-06T02:48:19;-0.10;99.90
17442;DHT22;8838;50.144;8.176;2023-04-06T02:50:46;0.00;99.90
17442;DHT22;8838;50.144;8.176;2023-04-06T02:53:13;0.00;99.90
17442;DHT22;8838;50.144;8.176;2023-04-06T02:55:40;0.00;99.90
17442;DHT22;8838;50.144;8.176;2023-04-06T02:58:07;0.00;99.90
17442;DHT22;8838;50.144;8.176;2023-04-06T03:00:34;0.00;99.90
17442;DHT22;8838;50.144;8.176;2023-04-06T03:03:01;0.00;99.90
17442;DHT22;8838;50.144;8.176;2023-04-06T03:05:30;-0.10;99.90
17442;DHT22;8838;50.144;8.176;2023-04-06T03:07:57;-0.10;99.90
17442;DHT22;8838;50.144;8.176;2023-04-06T03:10:24;-0.20;99.90
17442;DHT22;8838;50.144;8.176;2023-04-06T03:12:51;-0.30;99.90
17442;DHT22;8838;50.144;8.176;2023-04-06T03:15:18;-0.40;99.90
17442;DHT22;8838;50.144;8.176;2023-04-06T03:17:45;-0.40;99.90
17442;DHT22;8838;50.144;8.176;2023-04-06T03:20:12;-0.30;99.90
17442;DHT22;8838;50.144;8.176;2023-04-06T03:22:40;-0.30;99.90
17442;DHT22;8838;50.144;8.176;2023-04-06T03:25:08;-0.20;99.90
17442;DHT22;8838;50.144;8.176;2023-04-06T03:27:35;-0.20;99.90
17442;DHT22;8838;50.144;8.176;2023-04-06T03:30:03;-0.20;99.90
17442;DHT22;8838;50.144;8.176;2023-04-06T03:32:30;-0.20;99.90
17442;DHT22;8838;50.144;8.176;2023-04-06T03:34:57;-0.10;99.90
17442;DHT22;8838;50.144;8.176;2023-04-06T03:37:24;-0.20;99.90
17442;DHT22;8838;50.144;8.176;2023-04-06T03:39:53;-0.20;99.90
17442;DHT22;8838;50.144;8.176;2023-04-06T03:42:20;-0.10;99.90
17442;DHT22;8838;50.144;8.176;2023-04-06T03:44:47;-0.10;99.90
17442;DHT22;8838;50.144;8.176;2023-04-06T03:47:14;-0.10;99.90
17442;DHT22;8838;50.144;8.176;2023-04-06T03:49:41;-0.10;99.90
17442;DHT22;8838;50.144;8.176;2023-04-06T03:52:08;-0.10;99.90
17442;DHT22;8838;50.144;8.176;2023-04-06T03:54:35;-0.10;99.90
17442;DHT22;8838;50.144;8.176;2023-04-06T03:57:04;-0.10;99.90
17442;DHT22;8838;50.144;8.176;2023-04-06T03:59:31;-0.10;99.90
17442;DHT22;8838;50.144;8.176;2023-04-06T04:01:58;-0.10;99.90
17442;DHT22;8838;50.144;8.176;2023-04-06T04:04:25;-0.10;99.90
17442;DHT22;8838;50.144;8.176;2023-04-06T04:06:52;0.00;99.90
17442;DHT22;8838;50.144;8.176;2023-04-06T04:09:19;-0.10;99.90
17442;DHT22;8838;50.144;8.176;2023-04-06T04:11:46;-0.10;99.90
17442;DHT22;8838;50.144;8.176;2023-04-06T04:14:14;-0.10;99.90
17442;DHT22;8838;50.144;8.176;2023-04-06T04:16:41;-0.10;99.90
17442;DHT22;8838;50.144;8.176;2023-04-06T04:19:09;-0.20;99.90
17442;DHT22;8838;50.144;8.176;2023-04-06T04:21:42;-0.20;99.90
17442;DHT22;8838;50.144;8.176;2023-04-06T04:24:10;-0.30;99.90
17442;DHT22;8838;50.144;8.176;2023-04-06T04:26:38;-0.20;99.90
17442;DHT22;8838;50.144;8.176;2023-04-06T04:29:05;-0.20;99.90
17442;DHT22;8838;50.144;8.176;2023-04-06T04:31:34;-0.10;99.90
17442;DHT22;8838;50.144;8.176;2023-04-06T04:34:01;0.00;99.90
17442;DHT22;8838;50.144;8.176;2023-04-06T04:36:29;0.00;99.90
17442;DHT22;8838;50.144;8.176;2023-04-06T04:38:56;0.10;99.90
17442;DHT22;8838;50.144;8.176;2023-04-06T04:41:23;0.00;99.90
17442;DHT22;8838;50.144;8.176;2023-04-06T04:43:50;0.00;99.90
17442;DHT22;8838;50.144;8.176;2023-04-06T04:46:17;0.00;99.90
17442;DHT22;8838;50.144;8.176;2023-04-06T04:48:45;0.10;99.90
17442;DHT22;8838;50.144;8.176;2023-04-06T04:51:12;0.10;99.90
17442;DHT22;8838;50.144;8.176;2023-04-06T04:53:39;0.10;99.90
17442;DHT22;8838;50.144;8.176;2023-04-06T04:56:06;0.10;99.90
17442;DHT22;8838;50.144;8.176;2023-04-06T04:58:33;0.20;99.90
17442;DHT22;8838;50.144;8.176;2023-04-06T05:01:03;0.30;99.90
17442;DHT22;8838;50.144;8.176;2023-04-06T05:03:30;0.40;99.90
17442;DHT22;8838;50.144;8.176;2023-04-06T05:05:58;0.40;99.90
17442;DHT22;8838;50.144;8.176;2023-04-06T05:08:26;0.40;99.90
17442;DHT22;8838;50.144;8.176;2023-04-06T05:10:53;0.50;99.90
17442;DHT22;8838;50.144;8.176;2023-04-06T05:13:20;0.60;99.90
17442;DHT22;8838;50.144;8.176;2023-04-06T05:15:47;0.60;99.90
17442;DHT22;8838;50.144;8.176;2023-04-06T05:18:14;0.60;99.90
17442;DHT22;8838;50.144;8.176;2023-04-06T05:20:42;0.50;99.90
17442;DHT22;8838;50.144;8.176;2023-04-06T05:23:10;0.50;99.90
17442;DHT22;8838;50.144;8.176;2023-04-06T05:25:38;0.60;99.90
17442;DHT22;8838;50.144;8.176;2023-04-06T05:28:05;0.50;99.90
17442;DHT22;8838;50.144;8.176;2023-04-06T05:30:32;0.60;99.90
17442;DHT22;8838;50.144;8.176;2023-04-06T05:33:01;0.70;99.90
17442;DHT22;8838;50.144;8.176;2023-04-06T05:35:28;0.70;99.90
17442;DHT22;8838;50.144;8.176;2023-04-06T05:37:55;0.70;99.90
17442;DHT22;8838;50.144;8.176;2023-04-06T05:40:23;0.80;99.90
17442;DHT22;8838;50.144;8.176;2023-04-06T05:42:50;0.90;99.90
17442;DHT22;8838;50.144;8.176;2023-04-06T05:45:17;0.90;99.90
17442;DHT22;8838;50.144;8.176;2023-04-06T05:47:45;0.90;99.90
17442;DHT22;8838;50.144;8.176;2023-04-06T05:50:13;1.00;99.90
17442;DHT22;8838;50.144;8.176;2023-04-06T05:52:40;1.20;99.90
17442;DHT22;8838;50.144;8.176;2023-04-06T05:55:09;1.30;99.90
17442;DHT22;8838;50.144;8.176;2023-04-06T05:57:38;1.40;99.90
17442;DHT22;8838;50.144;8.176;2023-04-06T06:00:06;1.50;99.90
17442;DHT22;8838;50.144;8.176;2023-04-06T06:02:35;1.50;99.90
17442;DHT22;8838;50.144;8.176;2023-04-06T06:05:02;1.60;99.90
17442;DHT22;8838;50.144;8.176;2023-04-06T06:07:29;1.70;99.90
17442;DHT22;8838;50.144;8.176;2023-04-06T06:09:56;1.80;99.90
17442;DHT22;8838;50.144;8.176;2023-04-06T06:12:24;1.80;99.90
17442;DHT22;8838;50.144;8.176;2023-04-06T06:14:52;1.90;99.90
17442;DHT22;8838;50.144;8.176;2023-04-06T06:17:19;2.00;99.90
17442;DHT22;8838;50.144;8.176;2023-04-06T06:19:47;2.20;99.90
17442;DHT22;8838;50.144;8.176;2023-04-06T06:22:14;2.40;99.90
17442;DHT22;8838;50.144;8.176;2023-04-06T06:24:41;2.60;99.90
17442;DHT22;8838;50.144;8.176;2023-04-06T06:27:08;2.80;99.90
17442;DHT22;8838;50.144;8.176;2023-04-06T06:29:35;2.90;99.90
17442;DHT22;8838;50.144;8.176;2023-04-06T06:32:03;3.00;99.90
17442;DHT22;8838;50.144;8.176;2023-04-06T06:34:33;3.20;99.90
17442;DHT22;8838;50.144;8.176;2023-04-06T06:37:00;3.30;99.90
17442;DHT22;8838;50.144;8.176;2023-04-06T06:39:27;3.50;99.90
17442;DHT22;8838;50.144;8.176;2023-04-06T06:41:54;3.70;99.90
17442;DHT22;8838;50.144;8.176;2023-04-06T06:44:22;3.80;99.90
17442;DHT22;8838;50.144;8.176;2023-04-06T06:46:49;3.90;99.90
17442;DHT22;8838;50.144;8.176;2023-04-06T06:49:17;4.10;99.90
17442;DHT22;8838;50.144;8.176;2023-04-06T06:51:45;4.40;99.90
17442;DHT22;8838;50.144;8.176;2023-04-06T06:54:12;4.60;99.90
17442;DHT22;8838;50.144;8.176;2023-04-06T06:56:39;4.90;99.90
17442;DHT22;8838;50.144;8.176;2023-04-06T06:59:06;5.20;99.90
17442;DHT22;8838;50.144;8.176;2023-04-06T07:01:33;5.40;99.90
17442;DHT22;8838;50.144;8.176;2023-04-06T07:04:00;5.80;99.90
17442;DHT22;8838;50.144;8.176;2023-04-06T07:06:28;5.90;99.90
17442;DHT22;8838;50.144;8.176;2023-04-06T07:08:55;6.20;99.90
17442;DHT22;8838;50.144;8.176;2023-04-06T07:11:22;6.20;99.90
17442;DHT22;8838;50.144;8.176;2023-04-06T07:13:50;6.50;99.90
17442;DHT22;8838;50.144;8.176;2023-04-06T07:16:17;6.60;99.90
17442;DHT22;8838;50.144;8.176;2023-04-06T07:18:44;6.90;99.90
17442;DHT22;8838;50.144;8.176;2023-04-06T07:21:11;7.30;99.90
17442;DHT22;8838;50.144;8.176;2023-04-06T07:23:40;7.80;99.90
17442;DHT22;8838;50.144;8.176;2023-04-06T07:26:07;8.00;99.90
17442;DHT22;8838;50.144;8.176;2023-04-06T07:28:34;8.10;99.90
17442;DHT22;8838;50.144;8.176;2023-04-06T07:31:01;8.20;99.90
17442;DHT22;8838;50.144;8.176;2023-04-06T07:33:28;8.60;99.90
17442;DHT22;8838;50.144;8.176;2023-04-06T07:35:55;9.00;99.90
17442;DHT22;8838;50.144;8.176;2023-04-06T07:38:23;8.80;99.90
17442;DHT22;8838;50.144;8.176;2023-04-06T07:40:52;9.20;99.90
17442;DHT22;8838;50.144;8.176;2023-04-06T07:43:19;9.80;99.90
17442;DHT22;8838;50.144;8.176;2023-04-06T07:45:45;10.10;99.90
17442;DHT22;8838;50.144;8.176;2023-04-06T07:48:12;10.50;99.90
17442;DHT22;8838;50.144;8.176;2023-04-06T07:50:40;10.80;99.90
17442;DHT22;8838;50.144;8.176;2023-04-06T07:53:08;10.60;99.90
17442;DHT22;8838;50.144;8.176;2023-04-06T07:55:36;10.80;99.90
17442;DHT22;8838;50.144;8.176;2023-04-06T07:58:04;10.70;99.90
17442;DHT22;8838;50.144;8.176;2023-04-06T08:00:31;10.30;99.90
17442;DHT22;8838;50.144;8.176;2023-04-06T08:02:58;10.30;99.90
17442;DHT22;8838;50.144;8.176;2023-04-06T08:05:26;10.80;99.90
17442;DHT22;8838;50.144;8.176;2023-04-06T08:07:54;11.20;99.90
17442;DHT22;8838;50.144;8.176;2023-04-06T08:10:21;11.10;99.90
17442;DHT22;8838;50.144;8.176;2023-04-06T08:12:48;11.30;99.90
17442;DHT22;8838;50.144;8.176;2023-04-06T08:15:17;11.10;99.90
17442;DHT22;8838;50.144;8.176;2023-04-06T08:17:45;11.30;99.90
17442;DHT22;8838;50.144;8.176;2023-04-06T08:20:12;11.30;99.90
17442;DHT22;8838;50.144;8.176;2023-04-06T08:22:39;11.40;99.90
17442;DHT22;8838;50.144;8.176;2023-04-06T08:25:06;11.70;99.90
17442;DHT22;8838;50.144;8.176;2023-04-06T08:27:33;11.70;99.90
17442;DHT22;8838;50.144;8.176;2023-04-06T08:30:00;11.50;99.90
17442;DHT22;8838;50.144;8.176;2023-04-06T08:32:29;12.10;99.90
17442;DHT22;8838;50.144;8.176;2023-04-06T08:34:57;12.70;99.90
17442;DHT22;8838;50.144;8.176;2023-04-06T08:37:24;13.00;99.90
17442;DHT22;8838;50.144;8.176;2023-04-06T08:39:52;13.20;99.90
17442;DHT22;8838;50.144;8.176;2023-04-06T08:42:20;13.70;99.90
17442;DHT22;8838;50.144;8.176;2023-04-06T08:44:49;13.90;99.70
17442;DHT22;8838;50.144;8.176;2023-04-06T08:47:18;14.30;99.00
17442;DHT22;8838;50.144;8.176;2023-04-06T08:49:47;14.60;98.60
17442;DHT22;8838;50.144;8.176;2023-04-06T08:52:17;14.60;98.40
17442;DHT22;8838;50.144;8.176;2023-04-06T08:54:45;14.50;98.10
17442;DHT22;8838;50.144;8.176;2023-04-06T08:57:14;14.70;97.40
17442;DHT22;8838;50.144;8.176;2023-04-06T08:59:43;14.80;97.50
17442;DHT22;8838;50.144;8.176;2023-04-06T09:02:17;15.00;96.90
17442;DHT22;8838;50.144;8.176;2023-04-06T09:04:48;14.90;96.60
17442;DHT22;8838;50.144;8.176;2023-04-06T09:07:16;15.10;96.20
17442;DHT22;8838;50.144;8.176;2023-04-06T09:09:43;15.40;96.20
17442;DHT22;8838;50.144;8.176;2023-04-06T09:12:22;14.70;95.60
17442;DHT22;8838;50.144;8.176;2023-04-06T09:14:49;14.30;96.50
17442;DHT22;8838;50.144;8.176;2023-04-06T09:17:21;14.50;96.10
17442;DHT22;8838;50.144;8.176;2023-04-06T09:19:50;13.90;96.60
17442;DHT22;8838;50.144;8.176;2023-04-06T09:22:17;14.10;97.30
17442;DHT22;8838;50.144;8.176;2023-04-06T09:24:46;14.60;96.30
17442;DHT22;8838;50.144;8.176;2023-04-06T09:27:15;14.70;97.10
17442;DHT22;8838;50.144;8.176;2023-04-06T09:29:42;15.00;97.30
17442;DHT22;8838;50.144;8.176;2023-04-06T09:32:11;15.70;95.60
17442;DHT22;8838;50.144;8.176;2023-04-06T09:34:42;15.50;95.30
17442;DHT22;8838;50.144;8.176;2023-04-06T09:37:15;15.70;94.90
17442;DHT22;8838;50.144;8.176;2023-04-06T09:39:43;15.70;94.30
17442;DHT22;8838;50.144;8.176;2023-04-06T09:42:23;15.60;94.90
17442;DHT22;8838;50.144;8.176;2023-04-06T09:44:51;16.20;94.40
17442;DHT22;8838;50.144;8.176;2023-04-06T09:47:19;15.90;94.50
17442;DHT22;8838;50.144;8.176;2023-04-06T09:49:48;15.90;94.00
17442;DHT22;8838;50.144;8.176;2023-04-06T09:52:20;16.20;93.70
17442;DHT22;8838;50.144;8.176;2023-04-06T09:54:50;15.80;93.20
17442;DHT22;8838;50.144;8.176;2023-04-06T09:57:23;16.10;94.20
17442;DHT22;8838;50.144;8.176;2023-04-06T10:00:01;16.00;93.70
17442;DHT22;8838;50.144;8.176;2023-04-06T10:02:39;15.90;93.50
17442;DHT22;8838;50.144;8.176;2023-04-06T10:05:13;16.00;94.20
17442;DHT22;8838;50.144;8.176;2023-04-06T10:07:45;16.20;93.50
17442;DHT22;8838;50.144;8.176;2023-04-06T10:10:14;15.80;93.80
17442;DHT22;8838;50.144;8.176;2023-04-06T10:12:41;15.40;94.70
17442;DHT22;8838;50.144;8.176;2023-04-06T10:15:11;15.20;94.40
17442;DHT22;8838;50.144;8.176;2023-04-06T10:17:38;14.30;94.90
17442;DHT22;8838;50.144;8.176;2023-04-06T10:20:10;14.30;95.20
17442;DHT22;8838;50.144;8.176;2023-04-06T10:22:41;13.80;94.90
17442;DHT22;8838;50.144;8.176;2023-04-06T10:25:17;13.80;95.80
17442;DHT22;8838;50.144;8.176;2023-04-06T10:27:59;14.50;95.80
17442;DHT22;8838;50.144;8.176;2023-04-06T10:30:26;14.70;95.60
17442;DHT22;8838;50.144;8.176;2023-04-06T10:32:54;15.00;95.30
17442;DHT22;8838;50.144;8.176;2023-04-06T10:35:21;15.20;95.10
17442;DHT22;8838;50.144;8.176;2023-04-06T10:37:53;14.80;95.50
17442;DHT22;8838;50.144;8.176;2023-04-06T10:40:25;14.30;95.50
17442;DHT22;8838;50.144;8.176;2023-04-06T10:42:53;14.20;95.50
17442;DHT22;8838;50.144;8.176;2023-04-06T10:45:22;14.00;96.20
17442;DHT22;8838;50.144;8.176;2023-04-06T10:47:52;13.80;96.60
17442;DHT22;8838;50.144;8.176;2023-04-06T10:50:19;12.90;96.60
17442;DHT22;8838;50.144;8.176;2023-04-06T10:52:47;12.50;97.40
17442;DHT22;8838;50.144;8.176;2023-04-06T10:55:26;12.50;98.00
17442;DHT22;8838;50.144;8.176;2023-04-06T10:57:54;12.90;97.80
17442;DHT22;8838;50.144;8.176;2023-04-06T11:00:21;12.80;97.70
17442;DHT22;8838;50.144;8.176;2023-04-06T11:02:48;13.30;98.20
17442;DHT22;8838;50.144;8.176;2023-04-06T11:05:15;12.90;98.60
17442;DHT22;8838;50.144;8.176;2023-04-06T11:07:44;13.50;98.20
17442;DHT22;8838;50.144;8.176;2023-04-06T11:10:11;14.10;97.30
17442;DHT22;8838;50.144;8.176;2023-04-06T11:12:39;13.90;97.20
17442;DHT22;8838;50.144;8.176;2023-04-06T11:15:07;13.90;97.80
17442;DHT22;8838;50.144;8.176;2023-04-06T11:17:36;13.70;97.10
17442;DHT22;8838;50.144;8.176;2023-04-06T11:20:10;13.60;97.60
17442;DHT22;8838;50.144;8.176;2023-04-06T11:22:48;13.50;97.60
17442;DHT22;8838;50.144;8.176;2023-04-06T11:25:15;13.80;98.30
17442;DHT22;8838;50.144;8.176;2023-04-06T11:27:45;14.00;98.20
17442;DHT22;8838;50.144;8.176;2023-04-06T11:30:13;14.10;97.80
17442;DHT22;8838;50.144;8.176;2023-04-06T11:32:41;14.20;97.80
17442;DHT22;8838;50.144;8.176;2023-04-06T11:35:11;14.30;97.60
17442;DHT22;8838;50.144;8.176;2023-04-06T11:37:39;14.40;98.20
17442;DHT22;8838;50.144;8.176;2023-04-06T11:40:09;14.80;97.30
17442;DHT22;8838;50.144;8.176;2023-04-06T11:42:36;15.00;97.20
17442;DHT22;8838;50.144;8.176;2023-04-06T11:45:07;15.10;97.50
17442;DHT22;8838;50.144;8.176;2023-04-06T11:47:36;14.70;96.70
17442;DHT22;8838;50.144;8.176;2023-04-06T11:50:07;14.50;96.90
17442;DHT22;8838;50.144;8.176;2023-04-06T11:52:35;14.80;97.10
17442;DHT22;8838;50.144;8.176;2023-04-06T11:55:11;14.50;98.00
17442;DHT22;8838;50.144;8.176;2023-04-06T11:57:38;14.70;97.60
17442;DHT22;8838;50.144;8.176;2023-04-06T12:00:08;15.10;97.30
17442;DHT22;8838;50.144;8.176;2023-04-06T12:02:36;15.00;97.20
17442;DHT22;8838;50.144;8.176;2023-04-06T12:05:04;14.40;97.30
17442;DHT22;8838;50.144;8.176;2023-04-06T12:07:32;14.00;97.50
17442;DHT22;8838;50.144;8.176;2023-04-06T12:12:26;13.60;99.00
17442;DHT22;8838;50.144;8.176;2023-04-06T12:14:53;13.30;98.90
17442;DHT22;8838;50.144;8.176;2023-04-06T12:17:22;13.30;99.20
17442;DHT22;8838;50.144;8.176;2023-04-06T12:19:49;13.30;99.50
17442;DHT22;8838;50.144;8.176;2023-04-06T12:22:18;13.10;98.90
17442;DHT22;8838;50.144;8.176;2023-04-06T12:24:45;13.40;99.60
17442;DHT22;8838;50.144;8.176;2023-04-06T12:27:12;13.40;99.00
17442;DHT22;8838;50.144;8.176;2023-04-06T12:29:39;13.50;99.70
17442;DHT22;8838;50.144;8.176;2023-04-06T12:32:06;13.70;99.10
17442;DHT22;8838;50.144;8.176;2023-04-06T12:34:35;14.10;99.10
17442;DHT22;8838;50.144;8.176;2023-04-06T12:37:02;13.90;98.90
17442;DHT22;8838;50.144;8.176;2023-04-06T12:39:30;13.90;99.90
17442;DHT22;8838;50.144;8.176;2023-04-06T12:41:59;14.10;99.20
17442;DHT22;8838;50.144;8.176;2023-04-06T12:44:27;13.90;97.90
17442;DHT22;8838;50.144;8.176;2023-04-06T12:46:54;14.10;98.20
17442;DHT22;8838;50.144;8.176;2023-04-06T12:49:21;13.70;98.40
17442;DHT22;8838;50.144;8.176;2023-04-06T12:51:50;13.50;98.30
17442;DHT22;8838;50.144;8.176;2023-04-06T12:54:17;13.40;99.10
17442;DHT22;8838;50.144;8.176;2023-04-06T12:56:45;13.40;98.80
17442;DHT22;8838;50.144;8.176;2023-04-06T12:59:12;13.60;98.70
17442;DHT22;8838;50.144;8.176;2023-04-06T13:01:39;13.70;98.80
17442;DHT22;8838;50.144;8.176;2023-04-06T13:04:06;13.90;99.20
17442;DHT22;8838;50.144;8.176;2023-04-06T13:06:33;14.00;97.50
17442;DHT22;8838;50.144;8.176;2023-04-06T13:09:01;13.70;98.20
17442;DHT22;8838;50.144;8.176;2023-04-06T13:11:29;13.40;98.70
17442;DHT22;8838;50.144;8.176;2023-04-06T13:13:56;13.60;98.50
17442;DHT22;8838;50.144;8.176;2023-04-06T13:16:23;13.80;98.80
17442;DHT22;8838;50.144;8.176;2023-04-06T13:18:50;13.70;97.70
17442;DHT22;8838;50.144;8.176;2023-04-06T13:21:17;13.60;98.30
17442;DHT22;8838;50.144;8.176;2023-04-06T13:23:46;13.70;98.10
17442;DHT22;8838;50.144;8.176;2023-04-06T13:26:14;13.50;97.40
17442;DHT22;8838;50.144;8.176;2023-04-06T13:28:42;13.30;97.60
17442;DHT22;8838;50.144;8.176;2023-04-06T13:31:09;13.10;98.30
17442;DHT22;8838;50.144;8.176;2023-04-06T13:33:36;13.00;97.60
17442;DHT22;8838;50.144;8.176;2023-04-06T13:36:06;12.90;98.20
17442;DHT22;8838;50.144;8.176;2023-04-06T13:38:33;13.10;98.50
17442;DHT22;8838;50.144;8.176;2023-04-06T13:41:01;13.10;98.50
17442;DHT22;8838;50.144;8.176;2023-04-06T13:43:29;12.90;97.90
17442;DHT22;8838;50.144;8.176;2023-04-06T13:45:57;12.80;98.30
17442;DHT22;8838;50.144;8.176;2023-04-06T13:48:26;12.80;99.00
17442;DHT22;8838;50.144;8.176;2023-04-06T13:50:53;12.80;98.30
17442;DHT22;8838;50.144;8.176;2023-04-06T13:53:20;12.70;98.20
17442;DHT22;8838;50.144;8.176;2023-04-06T13:55:53;12.70;98.50
17442;DHT22;8838;50.144;8.176;2023-04-06T13:58:20;12.60;98.50
17442;DHT22;8838;50.144;8.176;2023-04-06T14:00:48;12.40;98.50
17442;DHT22;8838;50.144;8.176;2023-04-06T14:03:15;12.50;99.10
17442;DHT22;8838;50.144;8.176;2023-04-06T14:05:42;12.40;98.40
17442;DHT22;8838;50.144;8.176;2023-04-06T14:08:09;12.30;99.00
17442;DHT22;8838;50.144;8.176;2023-04-06T14:10:37;12.30;98.40
17442;DHT22;8838;50.144;8.176;2023-04-06T14:13:04;12.30;98.20
17442;DHT22;8838;50.144;8.176;2023-04-06T14:15:31;12.40;97.90
17442;DHT22;8838;50.144;8.176;2023-04-06T14:17:59;12.40;97.10
17442;DHT22;8838;50.144;8.176;2023-04-06T14:20:27;12.20;96.80
17442;DHT22;8838;50.144;8.176;2023-04-06T14:22:53;12.20;97.50
17442;DHT22;8838;50.144;8.176;2023-04-06T14:25:21;12.00;97.00
17442;DHT22;8838;50.144;8.176;2023-04-06T14:27:48;12.10;97.40
17442;DHT22;8838;50.144;8.176;2023-04-06T14:30:15;12.00;97.40
17442;DHT22;8838;50.144;8.176;2023-04-06T14:32:42;11.90;97.80
17442;DHT22;8838;50.144;8.176;2023-04-06T14:35:11;12.00;97.50
17442;DHT22;8838;50.144;8.176;2023-04-06T14:37:38;12.00;97.30
17442;DHT22;8838;50.144;8.176;2023-04-06T14:40:06;12.10;98.40
17442;DHT22;8838;50.144;8.176;2023-04-06T14:42:33;12.10;98.20
17442;DHT22;8838;50.144;8.176;2023-04-06T14:45:02;12.20;98.00
17442;DHT22;8838;50.144;8.176;2023-04-06T14:47:29;12.20;98.00
17442;DHT22;8838;50.144;8.176;2023-04-06T14:49:56;12.10;97.70
17442;DHT22;8838;50.144;8.176;2023-04-06T14:52:24;12.10;98.40
17442;DHT22;8838;50.144;8.176;2023-04-06T14:54:51;12.00;98.00
17442;DHT22;8838;50.144;8.176;2023-04-06T14:57:18;11.90;98.60
17442;DHT22;8838;50.144;8.176;2023-04-06T14:59:44;11.90;99.10
17442;DHT22;8838;50.144;8.176;2023-04-06T15:02:11;11.90;98.70
17442;DHT22;8838;50.144;8.176;2023-04-06T15:04:39;11.70;98.00
17442;DHT22;8838;50.144;8.176;2023-04-06T15:07:06;11.60;97.30
17442;DHT22;8838;50.144;8.176;2023-04-06T15:09:35;11.40;96.90
17442;DHT22;8838;50.144;8.176;2023-04-06T15:12:03;11.40;97.70
17442;DHT22;8838;50.144;8.176;2023-04-06T15:14:30;11.40;97.00
17442;DHT22;8838;50.144;8.176;2023-04-06T15:16:57;11.40;97.60
17442;DHT22;8838;50.144;8.176;2023-04-06T15:19:24;11.50;98.30
17442;DHT22;8838;50.144;8.176;2023-04-06T15:21:52;11.40;98.00
17442;DHT22;8838;50.144;8.176;2023-04-06T15:24:19;11.30;98.40
17442;DHT22;8838;50.144;8.176;2023-04-06T15:26:47;11.40;99.00
17442;DHT22;8838;50.144;8.176;2023-04-06T15:29:14;11.30;99.00
17442;DHT22;8838;50.144;8.176;2023-04-06T15:31:41;11.40;99.20
17442;DHT22;8838;50.144;8.176;2023-04-06T15:34:08;11.30;99.30
17442;DHT22;8838;50.144;8.176;2023-04-06T15:36:36;11.40;99.20
17442;DHT22;8838;50.144;8.176;2023-04-06T15:39:03;11.40;99.90
17442;DHT22;8838;50.144;8.176;2023-04-06T15:41:34;11.40;99.80
17442;DHT22;8838;50.144;8.176;2023-04-06T15:44:02;11.40;99.60
17442;DHT22;8838;50.144;8.176;2023-04-06T15:46:29;11.40;99.10
17442;DHT22;8838;50.144;8.176;2023-04-06T15:48:56;11.40;99.60
17442;DHT22;8838;50.144;8.176;2023-04-06T15:51:23;11.40;99.30
17442;DHT22;8838;50.144;8.176;2023-04-06T15:53:50;11.30;99.50
17442;DHT22;8838;50.144;8.176;2023-04-06T15:56:17;11.20;99.90
17442;DHT22;8838;50.144;8.176;2023-04-06T15:58:44;11.10;99.90